createdAt,value
2019-03-06T00:02:22.923Z,8.07
2019-03-06T00:04:52.550Z,8.47
2019-03-06T00:07:22.195Z,7.53
2019-03-06T00:09:51.875Z,7.77
2019-03-06T00:12:21.578Z,8.90
2019-03-06T00:14:52.889Z,8.40
2019-03-06T00:17:22.556Z,8.37
2019-03-06T00:19:52.276Z,8.40
2019-03-06T00:22:23.036Z,8.00
2019-03-06T00:24:52.752Z,8.50
2019-03-06T00:27:22.384Z,8.30
2019-03-06T00:29:52.059Z,8.63
2019-03-06T00:32:21.698Z,8.90
2019-03-06T00:34:52.031Z,8.90
2019-03-06T00:37:21.793Z,8.33
2019-03-06T00:39:58.649Z,9.63
2019-03-06T00:42:28.301Z,8.70
2019-03-06T00:44:57.908Z,8.77
2019-03-06T00:47:27.663Z,8.83
2019-03-06T00:49:57.261Z,8.63
2019-03-06T00:52:26.863Z,8.20
2019-03-06T00:54:56.543Z,7.87
2019-03-06T00:57:26.227Z,8.67
2019-03-06T00:59:56.055Z,8.27
2019-03-06T01:02:25.756Z,8.57
2019-03-06T01:04:55.376Z,7.97
2019-03-06T01:07:25.003Z,8.83
2019-03-06T01:09:55.368Z,8.20
2019-03-06T01:12:24.937Z,8.63
2019-03-06T01:14:56.560Z,8.30
2019-03-06T01:17:26.176Z,8.37
2019-03-06T01:19:57.999Z,7.37
2019-03-06T01:22:27.640Z,8.07
2019-03-06T01:25:01.273Z,8.07
2019-03-06T01:27:30.867Z,8.47
2019-03-06T01:30:00.462Z,8.43
2019-03-06T01:32:30.381Z,9.10
2019-03-06T01:35:17.595Z,8.90
2019-03-06T01:38:03.225Z,8.77
2019-03-06T01:40:44.756Z,8.97
2019-03-06T01:43:21.878Z,8.63
2019-03-06T01:45:51.438Z,8.10
2019-03-06T01:48:23.052Z,9.40
2019-03-06T01:50:52.723Z,8.53
2019-03-06T01:53:22.357Z,8.10
2019-03-06T01:55:52.121Z,8.50
2019-03-06T01:58:21.853Z,8.63
2019-03-06T02:00:51.590Z,9.07
2019-03-06T02:03:21.229Z,8.37
2019-03-06T02:05:50.804Z,8.77
2019-03-06T02:08:20.940Z,8.83
2019-03-06T02:10:50.842Z,8.80
2019-03-06T02:13:23.431Z,9.10
2019-03-06T02:15:52.993Z,8.50
2019-03-06T02:18:22.605Z,8.80
2019-03-06T02:20:54.287Z,8.53
2019-03-06T02:23:23.933Z,9.10
2019-03-06T02:25:53.651Z,9.20
2019-03-06T02:28:23.314Z,8.97
2019-03-06T02:30:52.990Z,8.97
2019-03-06T02:33:22.947Z,9.13
2019-03-06T02:35:53.981Z,8.67
2019-03-06T02:38:23.631Z,9.73
2019-03-06T02:40:54.329Z,9.43
2019-03-06T02:43:23.930Z,10.47
2019-03-06T02:45:54.005Z,9.73
2019-03-06T02:48:23.994Z,9.80
2019-03-06T02:50:53.738Z,9.97
2019-03-06T02:53:23.393Z,9.40
2019-03-06T02:55:52.963Z,9.73
2019-03-06T02:58:26.190Z,8.67
2019-03-06T03:01:11.486Z,9.37
2019-03-06T03:04:06.679Z,9.23
2019-03-06T03:06:43.127Z,8.83
2019-03-06T03:09:17.568Z,8.87
2019-03-06T03:11:47.280Z,9.97
2019-03-06T03:14:16.922Z,9.20
2019-03-06T03:16:46.666Z,9.73
2019-03-06T03:19:17.494Z,10.00
2019-03-06T03:21:47.424Z,9.57
2019-03-06T03:24:17.053Z,10.07
2019-03-06T03:26:46.714Z,9.67
2019-03-06T03:29:16.477Z,9.67
2019-03-06T03:31:46.187Z,10.73
2019-03-06T03:34:15.866Z,10.77
2019-03-06T03:36:45.456Z,13.27
2019-03-06T03:39:15.085Z,13.63
2019-03-06T03:41:46.018Z,13.67
2019-03-06T03:44:16.684Z,13.63
2019-03-06T03:46:46.314Z,14.53
2019-03-06T03:49:18.369Z,13.60
2019-03-06T03:51:48.068Z,12.43
2019-03-06T03:54:17.772Z,12.00
2019-03-06T03:56:47.405Z,11.10
2019-03-06T03:59:16.980Z,9.57
2019-03-06T04:01:46.717Z,10.50
2019-03-06T04:04:16.297Z,12.87
2019-03-06T04:06:45.935Z,13.30
2019-03-06T04:09:15.638Z,14.10
2019-03-06T04:11:45.370Z,12.33
2019-03-06T04:14:15.220Z,13.63
2019-03-06T04:16:44.868Z,13.07
2019-03-06T04:19:14.503Z,11.17
2019-03-06T04:21:44.130Z,10.93
2019-03-06T04:24:13.775Z,9.77
2019-03-06T04:26:43.816Z,10.90
2019-03-06T04:29:13.669Z,10.77
2019-03-06T04:31:45.456Z,11.30
2019-03-06T04:34:15.112Z,11.50
2019-03-06T04:36:44.721Z,11.57
2019-03-06T04:39:14.381Z,10.93
2019-03-06T04:41:44.389Z,11.47
2019-03-06T04:44:14.021Z,11.37
2019-03-06T04:46:43.697Z,12.07
2019-03-06T04:49:13.366Z,11.23
2019-03-06T04:51:44.181Z,12.60
2019-03-06T04:54:13.854Z,13.37
2019-03-06T04:56:43.504Z,13.33
2019-03-06T04:59:13.105Z,14.27
2019-03-06T05:01:43.812Z,14.30
2019-03-06T05:04:13.477Z,14.77
2019-03-06T05:06:43.137Z,14.17
2019-03-06T05:09:12.862Z,15.43
2019-03-06T05:11:42.482Z,14.77
2019-03-06T05:14:12.354Z,14.17
2019-03-06T05:16:59.428Z,14.97
2019-03-06T05:19:29.143Z,14.53
2019-03-06T05:21:58.785Z,14.93
2019-03-06T05:24:28.412Z,14.07
2019-03-06T05:26:58.061Z,15.67
2019-03-06T05:29:27.736Z,16.10
2019-03-06T05:32:31.079Z,18.50
2019-03-06T05:35:16.256Z,16.43
2019-03-06T05:38:10.416Z,16.70
2019-03-06T05:40:40.061Z,17.17
2019-03-06T05:43:09.706Z,15.53
2019-03-06T05:45:39.371Z,17.50
2019-03-06T05:48:09.007Z,17.47
2019-03-06T05:50:38.654Z,17.23
2019-03-06T05:53:08.312Z,17.57
2019-03-06T05:55:37.984Z,18.73
2019-03-06T05:58:07.580Z,18.97
2019-03-06T06:00:37.264Z,19.20
2019-03-06T06:03:07.013Z,20.27
2019-03-06T06:05:36.727Z,22.83
2019-03-06T06:08:08.387Z,18.33
2019-03-06T06:10:38.146Z,24.20
2019-03-06T06:13:07.700Z,21.53
2019-03-06T06:15:37.239Z,15.07
2019-03-06T06:18:06.789Z,14.57
2019-03-06T06:20:37.377Z,14.77
2019-03-06T06:23:26.365Z,15.53
2019-03-06T06:25:56.025Z,17.43
2019-03-06T06:28:25.665Z,15.10
2019-03-06T06:30:56.304Z,16.00
2019-03-06T06:33:26.030Z,16.03
2019-03-06T06:35:55.854Z,15.20
2019-03-06T06:38:25.573Z,16.07
2019-03-06T06:40:55.643Z,17.20
2019-03-06T06:43:26.477Z,25.07
2019-03-06T06:45:56.344Z,19.67
2019-03-06T06:48:27.047Z,17.80
2019-03-06T06:51:32.635Z,17.43
2019-03-06T06:54:26.903Z,15.23
2019-03-06T06:57:22.350Z,16.93
2019-03-06T07:00:20.401Z,16.00
2019-03-06T07:03:26.193Z,15.93
2019-03-06T07:06:07.784Z,16.53
2019-03-06T07:08:55.005Z,17.20
2019-03-06T07:11:49.817Z,15.67
2019-03-06T07:14:35.790Z,16.23
2019-03-06T07:17:12.100Z,17.47
2019-03-06T07:20:00.730Z,20.03
2019-03-06T07:22:55.172Z,18.03
2019-03-06T07:25:42.508Z,18.07
2019-03-06T07:28:26.605Z,18.03
2019-03-06T07:31:27.411Z,18.90
2019-03-06T07:34:25.388Z,16.93
2019-03-06T07:37:01.910Z,17.67
2019-03-06T07:40:02.620Z,16.73
2019-03-06T07:42:51.302Z,16.83
2019-03-06T07:46:05.933Z,16.23
2019-03-06T07:49:01.116Z,15.57
2019-03-06T07:51:48.290Z,15.40
2019-03-06T07:54:35.846Z,16.60
2019-03-06T07:57:39.633Z,16.67
2019-03-06T08:00:18.079Z,17.57
2019-03-06T08:03:36.466Z,16.33
2019-03-06T08:06:06.224Z,16.63
2019-03-06T08:08:35.971Z,17.97
2019-03-06T08:11:12.150Z,16.63
2019-03-06T08:14:06.819Z,17.40
2019-03-06T08:20:12.388Z,16.83
2019-03-06T08:23:01.348Z,16.37
2019-03-06T08:25:50.078Z,15.47
2019-03-06T08:28:31.144Z,16.40
2019-03-06T08:31:20.020Z,15.50
2019-03-06T08:33:52.752Z,15.60
2019-03-06T08:36:22.629Z,17.27
2019-03-06T08:38:52.441Z,14.93
2019-03-06T08:41:22.462Z,16.30
2019-03-06T08:43:52.311Z,16.50
2019-03-06T08:46:41.031Z,16.87
2019-03-06T08:49:32.420Z,17.67
2019-03-06T08:52:08.081Z,17.83
2019-03-06T08:54:59.532Z,17.43
2019-03-06T08:57:47.244Z,15.63
2019-03-06T09:00:44.887Z,18.17
2019-03-06T09:03:34.383Z,15.63
2019-03-06T09:06:22.991Z,13.90
2019-03-06T09:09:14.752Z,16.97
2019-03-06T09:11:53.290Z,14.63
2019-03-06T09:14:54.201Z,14.83
2019-03-06T09:17:46.113Z,15.10
2019-03-06T09:20:39.977Z,13.70
2019-03-06T09:23:22.731Z,13.97
2019-03-06T09:26:06.340Z,13.27
2019-03-06T09:29:00.485Z,13.00
2019-03-06T09:31:40.590Z,13.20
2019-03-06T09:34:20.085Z,13.87
2019-03-06T09:37:11.061Z,12.23
2019-03-06T09:39:51.457Z,12.50
2019-03-06T09:42:47.838Z,12.50
2019-03-06T09:45:22.070Z,13.53
2019-03-06T09:48:13.758Z,11.50
2019-03-06T09:51:10.764Z,12.03
2019-03-06T09:54:00.076Z,13.27
2019-03-06T09:57:00.357Z,14.20
2019-03-06T09:59:46.932Z,13.20
2019-03-06T10:02:23.465Z,14.50
2019-03-06T10:05:08.371Z,13.03
2019-03-06T10:07:59.867Z,14.97
2019-03-06T10:11:07.009Z,13.10
2019-03-06T10:13:52.242Z,14.37
2019-03-06T10:16:28.774Z,13.77
2019-03-06T10:19:16.504Z,14.73
2019-03-06T10:21:48.377Z,14.60
2019-03-06T10:24:18.286Z,14.43
2019-03-06T10:26:48.059Z,13.50
2019-03-06T10:29:17.894Z,15.27
2019-03-06T10:31:52.074Z,14.17
2019-03-06T10:34:22.221Z,14.37
2019-03-06T10:36:51.997Z,16.03
2019-03-06T10:39:21.886Z,14.43
2019-03-06T10:41:51.632Z,13.03
2019-03-06T10:44:28.825Z,12.10
2019-03-06T10:46:53.083Z,10.37
2019-03-06T10:49:22.872Z,10.80
2019-03-06T10:51:52.724Z,11.90
2019-03-06T10:54:23.436Z,11.40
2019-03-06T10:56:53.539Z,11.47
2019-03-06T10:59:23.308Z,12.30
2019-03-06T11:01:53.071Z,13.43
2019-03-06T11:04:44.444Z,13.07
2019-03-06T11:07:42.054Z,10.67
2019-03-06T11:10:12.476Z,11.77
2019-03-06T11:12:42.572Z,11.80
2019-03-06T11:15:12.791Z,11.00
2019-03-06T11:17:44.151Z,11.90
2019-03-06T11:20:16.864Z,12.07
2019-03-06T11:22:46.616Z,12.13
2019-03-06T11:25:16.661Z,12.07
2019-03-06T11:27:46.406Z,11.93
2019-03-06T11:30:29.318Z,12.83
2019-03-06T11:32:59.032Z,12.83
2019-03-06T11:35:28.949Z,11.67
2019-03-06T11:37:58.999Z,13.30
2019-03-06T11:40:29.270Z,12.50
2019-03-06T11:42:59.019Z,12.13
2019-03-06T11:45:28.981Z,13.73
2019-03-06T11:47:58.822Z,12.87
2019-03-06T11:50:40.911Z,13.50
2019-03-06T11:53:07.938Z,12.07
2019-03-06T11:55:39.533Z,11.23
2019-03-06T11:58:12.906Z,10.57
2019-03-06T12:00:44.798Z,11.23
2019-03-06T12:03:17.035Z,10.47
2019-03-06T12:05:47.168Z,10.17
2019-03-06T12:08:17.385Z,10.23
2019-03-06T12:10:47.328Z,9.00
2019-03-06T12:13:17.861Z,10.40
2019-03-06T12:15:49.024Z,10.13
2019-03-06T12:18:19.851Z,12.80
2019-03-06T12:20:49.514Z,9.80
2019-03-06T12:23:19.281Z,9.17
2019-03-06T12:25:48.884Z,9.03
2019-03-06T12:28:18.710Z,9.83
2019-03-06T12:30:48.728Z,9.47
2019-03-06T12:33:21.132Z,9.20
2019-03-06T12:35:50.738Z,8.73
2019-03-06T12:38:20.550Z,8.23
2019-03-06T12:40:50.216Z,8.27
2019-03-06T12:43:19.869Z,8.13
2019-03-06T12:46:32.380Z,8.17
2019-03-06T12:49:04.317Z,8.90
2019-03-06T12:51:35.384Z,7.63
2019-03-06T12:54:05.880Z,6.60
2019-03-06T12:56:35.620Z,7.13
2019-03-06T12:59:06.340Z,6.83
2019-03-06T13:01:36.108Z,6.97
2019-03-06T13:04:06.067Z,7.10
2019-03-06T13:06:37.567Z,7.07
2019-03-06T13:09:17.569Z,6.87
2019-03-06T13:11:47.156Z,6.90
2019-03-06T13:14:16.804Z,6.83
2019-03-06T13:16:46.886Z,6.77
2019-03-06T13:19:16.564Z,6.07
2019-03-06T13:21:46.220Z,6.23
2019-03-06T13:24:16.102Z,6.87
2019-03-06T13:26:45.693Z,6.40
2019-03-06T13:29:15.435Z,5.93
2019-03-06T13:31:45.078Z,5.70
2019-03-06T13:34:22.529Z,6.60
2019-03-06T13:36:52.180Z,6.17
2019-03-06T13:39:21.782Z,5.73
2019-03-06T13:41:51.804Z,5.50
2019-03-06T13:44:21.522Z,5.97
2019-03-06T13:46:51.128Z,5.47
2019-03-06T13:49:20.759Z,6.03
2019-03-06T13:51:50.538Z,6.50
2019-03-06T13:54:20.128Z,6.00
2019-03-06T13:56:51.795Z,7.27
2019-03-06T13:59:21.221Z,6.00
2019-03-06T14:01:51.030Z,6.33
2019-03-06T14:04:20.613Z,6.30
2019-03-06T14:06:50.315Z,6.53
2019-03-06T14:09:19.929Z,6.53
2019-03-06T14:11:49.832Z,7.23
2019-03-06T14:14:19.474Z,7.03
2019-03-06T14:16:49.103Z,6.87
2019-03-06T14:19:18.849Z,6.60
2019-03-06T14:21:50.026Z,6.47
2019-03-06T14:24:20.123Z,6.30
2019-03-06T14:26:49.768Z,5.53
2019-03-06T14:29:19.440Z,6.47
2019-03-06T14:31:49.037Z,5.80
2019-03-06T14:34:18.696Z,6.17
2019-03-06T14:36:48.401Z,6.20
2019-03-06T14:39:31.370Z,6.13
2019-03-06T14:42:01.963Z,6.67
2019-03-06T14:44:34.661Z,5.97
2019-03-06T14:47:04.277Z,6.10
2019-03-06T14:49:34.212Z,5.70
2019-03-06T14:52:07.084Z,6.17
2019-03-06T14:54:35.460Z,5.57
2019-03-06T14:57:07.188Z,5.33
2019-03-06T14:59:36.722Z,5.97
2019-03-06T15:02:06.298Z,5.80
2019-03-06T15:04:35.881Z,4.60
2019-03-06T15:07:07.384Z,5.30
2019-03-06T15:09:38.188Z,5.17
2019-03-06T15:12:08.057Z,5.07
2019-03-06T15:14:38.070Z,5.63
2019-03-06T15:17:09.565Z,5.20
2019-03-06T15:19:41.922Z,5.90
2019-03-06T15:22:11.736Z,5.70
2019-03-06T15:24:41.959Z,5.73
2019-03-06T15:27:13.300Z,6.33
2019-03-06T15:29:45.104Z,6.23
2019-03-06T15:32:16.630Z,6.87
2019-03-06T15:34:46.557Z,6.90
2019-03-06T15:37:19.252Z,7.40
2019-03-06T15:39:56.432Z,6.93
2019-03-06T15:42:26.618Z,6.50
2019-03-06T15:44:58.673Z,6.37
2019-03-06T15:47:33.719Z,8.17
2019-03-06T15:49:59.860Z,9.70
2019-03-06T15:52:29.690Z,7.70
2019-03-06T15:54:59.327Z,7.30
2019-03-06T15:57:29.008Z,7.27
2019-03-06T15:59:58.599Z,7.80
2019-03-06T16:02:30.968Z,7.40
2019-03-06T16:05:00.604Z,8.37
2019-03-06T16:07:30.302Z,7.90
2019-03-06T16:09:59.855Z,8.47
2019-03-06T16:12:30.578Z,8.83
2019-03-06T16:15:00.210Z,9.13
2019-03-06T16:17:29.817Z,9.00
2019-03-06T16:20:00.484Z,9.43
2019-03-06T16:22:30.156Z,9.47
2019-03-06T16:24:59.744Z,9.80
2019-03-06T16:27:29.480Z,10.30
2019-03-06T16:29:59.170Z,10.90
2019-03-06T16:32:29.156Z,11.70
2019-03-06T16:34:58.817Z,10.63
2019-03-06T16:37:28.468Z,10.43
2019-03-06T16:39:58.067Z,10.30
2019-03-06T16:42:27.663Z,11.23
2019-03-06T16:44:57.283Z,10.97
2019-03-06T16:47:26.907Z,11.20
2019-03-06T16:49:56.454Z,10.67
2019-03-06T16:52:26.109Z,11.33
2019-03-06T16:54:55.705Z,11.40
2019-03-06T16:57:25.342Z,11.07
2019-03-06T16:59:55.275Z,11.23
2019-03-06T17:02:24.872Z,10.70
2019-03-06T17:04:54.466Z,11.90
2019-03-06T17:07:24.104Z,23.00
2019-03-06T17:09:53.833Z,14.23
2019-03-06T17:12:25.157Z,14.73
2019-03-06T17:14:56.747Z,15.30
2019-03-06T17:17:27.963Z,20.37
2019-03-06T17:20:00.313Z,16.63
2019-03-06T17:22:33.755Z,14.80
2019-03-06T17:25:06.155Z,15.53
2019-03-06T17:27:37.110Z,16.80
2019-03-06T17:30:12.631Z,16.07
2019-03-06T17:33:19.259Z,16.87
2019-03-06T17:35:53.406Z,18.07
2019-03-06T17:38:23.544Z,19.43
2019-03-06T17:41:01.780Z,21.30
2019-03-06T17:43:32.946Z,28.57
2019-03-06T17:46:06.075Z,24.30
2019-03-06T17:49:55.561Z,20.93
2019-03-06T17:51:40.083Z,18.23
2019-03-06T17:54:09.893Z,16.87
2019-03-06T17:56:39.750Z,17.80
2019-03-06T17:59:09.477Z,18.87
2019-03-06T18:01:39.263Z,17.67
2019-03-06T18:04:16.578Z,25.37
2019-03-06T18:06:46.234Z,29.13
2019-03-06T18:09:15.901Z,24.50
2019-03-06T18:11:45.697Z,23.33
2019-03-06T18:14:17.120Z,24.50
2019-03-06T18:16:49.181Z,27.77
2019-03-06T18:19:27.949Z,26.17
2019-03-06T18:22:12.458Z,28.70
2019-03-06T18:24:42.442Z,21.20
2019-03-06T18:27:12.154Z,22.20
2019-03-06T18:29:42.856Z,20.60
2019-03-06T18:32:12.670Z,18.23
2019-03-06T18:34:42.608Z,16.17
2019-03-06T18:37:12.827Z,19.23
2019-03-06T18:39:49.623Z,20.23
2019-03-06T18:42:19.319Z,16.90
2019-03-06T18:44:49.113Z,17.77
2019-03-06T18:47:18.943Z,19.77
2019-03-06T18:49:48.687Z,19.63
2019-03-06T18:52:19.001Z,20.17
2019-03-06T18:54:48.817Z,20.67
2019-03-06T18:57:18.501Z,21.93
2019-03-06T18:59:59.633Z,21.00
2019-03-06T19:02:30.276Z,19.23
2019-03-06T19:05:05.557Z,20.67
2019-03-06T19:07:36.082Z,23.13
2019-03-06T19:10:11.309Z,24.50
2019-03-06T19:12:41.025Z,23.47
2019-03-06T19:15:14.005Z,21.20
2019-03-06T19:17:43.712Z,22.50
2019-03-06T19:20:14.060Z,21.33
2019-03-06T19:22:43.962Z,20.77
2019-03-06T19:25:14.034Z,18.97
2019-03-06T19:27:43.716Z,18.63
2019-03-06T19:30:18.280Z,17.87
2019-03-06T19:32:48.330Z,17.80
2019-03-06T19:35:20.293Z,18.50
2019-03-06T19:37:50.083Z,18.63
2019-03-06T19:40:20.260Z,17.90
2019-03-06T19:42:49.950Z,19.07
2019-03-06T19:45:20.170Z,19.97
2019-03-06T19:47:50.780Z,19.53
2019-03-06T19:50:21.721Z,19.50
2019-03-06T19:52:53.712Z,22.07
2019-03-06T19:55:24.140Z,19.90
2019-03-06T19:57:58.441Z,20.87
2019-03-06T20:00:29.546Z,26.97
2019-03-06T20:02:59.672Z,21.50
2019-03-06T20:05:35.576Z,21.33
2019-03-06T20:08:09.101Z,20.57
2019-03-06T20:10:39.631Z,20.13
2019-03-06T20:13:09.910Z,24.47
2019-03-06T20:15:39.930Z,23.97
2019-03-06T20:18:17.580Z,23.90
2019-03-06T20:20:47.234Z,18.50
2019-03-06T20:23:16.928Z,17.77
2019-03-06T20:25:46.528Z,17.33
2019-03-06T20:28:16.224Z,18.77
2019-03-06T20:30:45.979Z,21.97
2019-03-06T20:33:15.676Z,22.73
2019-03-06T20:35:45.307Z,19.77
2019-03-06T20:38:15.115Z,22.30
2019-03-06T20:40:44.768Z,24.53
2019-03-06T20:43:14.392Z,25.33
2019-03-06T20:45:46.868Z,28.63
2019-03-06T20:48:16.533Z,27.07
2019-03-06T20:50:46.310Z,25.47
2019-03-06T20:53:16.032Z,19.77
2019-03-06T20:55:45.706Z,23.03
2019-03-06T20:58:15.578Z,22.30
2019-03-06T21:00:45.329Z,19.33
2019-03-06T21:03:14.976Z,20.13
2019-03-06T21:05:44.592Z,17.50
2019-03-06T21:08:14.376Z,15.97
2019-03-06T21:10:44.061Z,14.27
2019-03-06T21:13:13.648Z,16.47
2019-03-06T21:15:43.275Z,17.60
2019-03-06T21:18:14.394Z,23.40
2019-03-06T21:20:44.240Z,27.67
2019-03-06T21:23:14.175Z,27.27
2019-03-06T21:25:43.768Z,26.67
2019-03-06T21:28:13.365Z,23.57
2019-03-06T21:30:43.255Z,20.17
2019-03-06T21:33:13.256Z,23.53
2019-03-06T21:35:44.222Z,22.97
2019-03-06T21:38:14.071Z,18.37
2019-03-06T21:40:43.647Z,16.87
2019-03-06T21:43:13.260Z,16.13
2019-03-06T21:45:44.119Z,32.17
2019-03-06T21:48:26.982Z,17.73
2019-03-06T21:51:05.320Z,15.17
2019-03-06T21:53:41.907Z,15.53
2019-03-06T21:56:30.900Z,14.53
2019-03-06T21:59:58.561Z,15.00
2019-03-06T22:05:22.059Z,19.83
2019-03-06T22:08:34.840Z,19.47
2019-03-06T22:13:18.454Z,18.83
2019-03-06T22:15:05.691Z,16.30
2019-03-06T22:18:29.062Z,17.30
2019-03-06T22:25:26.127Z,17.60
2019-03-06T22:36:31.512Z,16.20
2019-03-06T22:39:51.192Z,15.87
2019-03-06T22:42:38.360Z,17.13
2019-03-06T22:46:07.873Z,17.27
2019-03-06T22:58:52.550Z,19.23
2019-03-06T23:01:55.444Z,16.97
2019-03-06T23:05:13.901Z,15.97
2019-03-06T23:08:22.114Z,16.30
2019-03-06T23:11:51.867Z,16.17
2019-03-06T23:14:26.474Z,15.17
2019-03-06T23:21:33.498Z,15.70
2019-03-06T23:39:55.781Z,16.17
2019-03-06T23:42:47.876Z,16.93
2019-03-06T23:45:40.523Z,15.93
2019-03-06T23:48:57.223Z,16.30
2019-03-06T23:52:02.071Z,18.37
2019-03-06T23:55:06.293Z,17.43
2019-03-06T23:58:39.515Z,16.23
